Time;durP1;ratioP1;P1;durP2;ratioP2;P2;SDS_P1;SDS_P2;PMS_P1;PMS_P2;Temp;Humidity;BMP_temperature;BMP_pressure;BME280_temperature;BME280_humidity;BME280_pressure;Samples;Min_cycle;Max_cycle;Signal;HPM_P1;HPM_P2
2022/09/18 00:01:38;;;;;;;0.40;0.20;;;;;;;18.27;100.00;94299.56;4973544;28;20521;-64
2022/09/18 00:04:11;;;;;;;0.40;0.20;;;;;;;18.28;100.00;94285.03;4973306;28;20881;-64
2022/09/18 00:06:43;;;;;;;0.50;0.30;;;;;;;18.32;100.00;94275.16;4973354;28;20434;-64
2022/09/18 00:09:13;;;;;;;0.40;0.30;;;;;;;17.54;100.00;94293.63;4973022;28;20442;-65
2022/09/18 00:11:44;;;;;;;0.40;0.20;;;;;;;17.40;100.00;94301.19;4973115;28;20430;-65
2022/09/18 00:14:14;;;;;;;0.40;0.20;;;;;;;17.02;100.00;94306.09;4973437;28;20457;-64
2022/09/18 00:16:43;;;;;;;0.70;0.60;;;;;;;16.84;100.00;94294.03;4972848;28;20427;-64
2022/09/18 00:19:13;;;;;;;0.50;0.30;;;;;;;16.56;100.00;94304.56;4973320;28;20805;-64
2022/09/18 00:21:43;;;;;;;1.27;1.27;;;;;;;16.65;100.00;94313.28;4973127;28;20928;-64
2022/09/18 00:24:12;;;;;;;0.97;0.97;;;;;;;16.62;100.00;94311.25;4972833;28;20822;-64
2022/09/18 00:26:41;;;;;;;0.40;0.20;;;;;;;16.68;100.00;94298.47;4973214;28;20439;-64
2022/09/18 00:29:10;;;;;;;0.50;0.30;;;;;;;17.20;100.00;94295.97;4972978;28;20426;-64
2022/09/18 00:31:39;;;;;;;0.60;0.60;;;;;;;17.45;100.00;94292.16;4972881;28;20444;-64
2022/09/18 00:34:11;;;;;;;0.40;0.30;;;;;;;17.07;100.00;94284.47;4972713;28;20821;-64
2022/09/18 00:36:42;;;;;;;0.40;0.27;;;;;;;16.85;100.00;94287.59;4972600;28;20438;-63
2022/09/18 00:39:11;;;;;;;0.40;0.20;;;;;;;16.79;100.00;94286.22;4972532;28;20873;-63
2022/09/18 00:41:41;;;;;;;0.40;0.20;;;;;;;17.02;100.00;94287.38;4972772;28;20439;-63
2022/09/18 00:44:33;;;;;;;0.50;0.40;;;;;;;17.40;100.00;94285.13;4973043;28;20637;-64
2022/09/18 00:47:16;;;;;;;0.40;0.27;;;;;;;16.91;100.00;94294.25;4972620;28;20431;-63
2022/09/18 00:49:49;;;;;;;0.40;0.23;;;;;;;17.68;100.00;94282.56;4972405;28;20884;-64
2022/09/18 00:52:22;;;;;;;0.40;0.20;;;;;;;17.95;100.00;94273.75;4972808;28;20435;-64
2022/09/18 00:54:55;;;;;;;0.40;0.20;;;;;;;18.08;100.00;94267.25;4972388;28;20429;-64
2022/09/18 00:57:29;;;;;;;0.40;0.20;;;;;;;18.42;100.00;94265.84;4972553;28;20817;-65
2022/09/18 00:59:57;;;;;;;0.60;0.40;;;;;;;18.60;100.00;94255.59;4972430;28;20434;-64
2022/09/18 01:02:26;;;;;;;0.50;0.30;;;;;;;18.80;100.00;94259.94;4972606;28;20813;-65
2022/09/18 01:04:54;;;;;;;31.83;1.33;;;;;;;18.26;100.00;94257.00;4972323;28;20479;-65
2022/09/18 01:07:41;;;;;;;0.40;0.30;;;;;;;17.99;100.00;94263.13;4972069;28;20432;-64
2022/09/18 01:10:22;;;;;;;0.40;0.30;;;;;;;18.22;100.00;94256.88;4972174;28;20426;-65
2022/09/18 01:12:55;;;;;;;0.40;0.20;;;;;;;18.37;100.00;94258.81;4972149;28;20426;-65
2022/09/18 01:15:31;;;;;;;0.80;0.30;;;;;;;18.32;100.00;94272.50;4972127;28;20438;-65
2022/09/18 01:18:06;;;;;;;0.40;0.30;;;;;;;17.18;100.00;94207.91;4972431;28;20476;-65
2022/09/18 01:21:04;;;;;;;0.40;0.20;;;;;;;17.66;100.00;94276.72;4972435;28;20440;-64
2022/09/18 01:24:20;;;;;;;2.20;0.30;;;;;;;18.26;100.00;94273.88;4971911;28;20449;-64
2022/09/18 01:26:58;;;;;;;4.73;0.57;;;;;;;17.51;100.00;94243.34;4971947;28;20439;-64
2022/09/18 01:29:36;;;;;;;0.50;0.50;;;;;;;16.91;100.00;94278.22;4972064;28;20442;-63
2022/09/18 01:32:09;;;;;;;0.87;0.57;;;;;;;17.18;100.00;94264.16;4972310;28;20426;-64
2022/09/18 01:34:46;;;;;;;0.40;0.20;;;;;;;17.52;100.00;94252.19;4971956;28;20438;-63
2022/09/18 01:37:21;;;;;;;0.47;0.27;;;;;;;17.00;100.00;94262.84;4972055;28;20457;-64
2022/09/18 01:39:55;;;;;;;0.50;0.30;;;;;;;17.02;100.00;94258.72;4971572;28;20492;-62
2022/09/18 01:42:28;;;;;;;0.40;0.30;;;;;;;16.58;100.00;94301.56;4972304;28;20487;-62
2022/09/18 01:45:02;;;;;;;0.40;0.20;;;;;;;16.96;100.00;94280.66;4971810;28;20438;-62
2022/09/18 01:47:35;;;;;;;0.80;0.80;;;;;;;16.38;100.00;94287.09;4971558;28;20439;-61
2022/09/18 01:50:07;;;;;;;0.50;0.30;;;;;;;16.81;100.00;94286.66;4971610;28;20828;-62
2022/09/18 01:52:39;;;;;;;0.40;0.30;;;;;;;17.46;100.00;94275.72;4971787;28;20418;-62
2022/09/18 01:55:19;;;;;;;0.40;0.20;;;;;;;17.07;100.00;94287.94;4971564;28;20431;-62
2022/09/18 01:57:53;;;;;;;1.00;0.30;;;;;;;16.48;100.00;94274.09;4971681;28;20430;-62
2022/09/18 02:00:23;;;;;;;0.40;0.20;;;;;;;16.83;100.00;94285.22;4971543;28;20821;-62
2022/09/18 02:02:55;;;;;;;0.40;0.20;;;;;;;16.78;100.00;94272.06;4971493;28;20438;-63
2022/09/18 02:05:27;;;;;;;0.50;0.30;;;;;;;16.54;100.00;94274.72;4971756;28;20439;-62
2022/09/18 02:08:05;;;;;;;0.40;0.20;;;;;;;17.19;100.00;94275.66;4971398;28;20450;-62
2022/09/18 02:10:38;;;;;;;0.40;0.30;;;;;;;16.44;100.00;94264.41;4971521;28;20437;-62
2022/09/18 02:13:08;;;;;;;0.70;0.50;;;;;;;16.27;100.00;94270.69;4971352;28;20434;-62
2022/09/18 02:15:41;;;;;;;0.40;0.30;;;;;;;16.77;100.00;94281.22;4971569;28;20431;-62
2022/09/18 02:18:15;;;;;;;0.60;0.30;;;;;;;16.84;100.00;94211.88;4970008;28;20504;-62
2022/09/18 02:20:44;;;;;;;0.50;0.30;;;;;;;16.81;100.00;94274.06;4971551;28;20484;-62
2022/09/18 02:23:14;;;;;;;0.40;0.20;;;;;;;16.63;100.00;94279.94;4971234;28;20438;-62
2022/09/18 02:25:45;;;;;;;0.40;0.30;;;;;;;17.03;100.00;94292.38;4971141;28;20927;-62
2022/09/18 02:28:16;;;;;;;0.40;0.30;;;;;;;17.34;100.00;94283.78;4971192;28;20427;-61
2022/09/18 02:30:46;;;;;;;0.40;0.20;;;;;;;17.07;100.00;94284.47;4970924;28;20440;-63
2022/09/18 02:33:26;;;;;;;0.60;0.47;;;;;;;17.14;100.00;94282.00;4970914;28;20817;-62
2022/09/18 02:36:16;;;;;;;0.43;0.27;;;;;;;16.94;100.00;94283.69;4970980;28;20438;-61
2022/09/18 02:38:54;;;;;;;0.70;0.40;;;;;;;16.96;100.00;94277.97;4954823;28;20498;-62
2022/09/18 02:41:34;;;;;;;0.40;0.20;;;;;;;16.64;100.00;94187.88;4970891;28;20435;-61
2022/09/18 02:44:09;;;;;;;0.47;0.40;;;;;;;17.77;100.00;94267.91;4970909;28;20438;-62
2022/09/18 02:46:48;;;;;;;0.40;0.20;;;;;;;17.84;100.00;94267.31;4970808;28;20438;-62
2022/09/18 02:49:27;;;;;;;0.40;0.20;;;;;;;17.26;100.00;94271.28;4970666;28;20425;-62
2022/09/18 02:52:02;;;;;;;0.40;0.20;;;;;;;17.22;100.00;94275.78;4970723;28;20445;-61
2022/09/18 02:54:36;;;;;;;0.40;0.30;;;;;;;17.22;100.00;94273.09;4970985;28;20833;-62
2022/09/18 02:57:09;;;;;;;0.40;0.30;;;;;;;17.19;100.00;94283.69;4970639;28;20430;-62
2022/09/18 02:59:41;;;;;;;0.40;0.20;;;;;;;17.70;100.00;94286.47;4970825;28;20494;-61
2022/09/18 03:02:12;;;;;;;0.53;0.53;;;;;;;17.26;100.00;94252.53;4970998;28;20456;-62
2022/09/18 03:04:40;;;;;;;0.40;0.20;;;;;;;17.49;100.00;94283.09;4970462;28;20474;-62
2022/09/18 03:07:09;;;;;;;0.50;0.30;;;;;;;17.73;100.00;94271.59;4970941;28;20422;-61
2022/09/18 03:09:37;;;;;;;0.40;0.20;;;;;;;17.68;100.00;94269.16;4970470;28;20438;-62
2022/09/18 03:12:06;;;;;;;0.40;0.20;;;;;;;18.00;100.00;94267.38;4970594;28;20422;-62
2022/09/18 03:14:34;;;;;;;0.60;0.40;;;;;;;16.96;100.00;94286.00;4970365;28;20431;-61
2022/09/18 03:17:03;;;;;;;0.50;0.30;;;;;;;17.05;100.00;94259.94;4970674;28;20431;-62
2022/09/18 03:19:33;;;;;;;0.40;0.30;;;;;;;16.77;100.00;94261.69;4970537;28;20504;-61
2022/09/18 03:22:01;;;;;;;0.40;0.20;;;;;;;17.48;100.00;94264.69;4970373;28;20437;-61
2022/09/18 03:24:29;;;;;;;0.40;0.30;;;;;;;17.73;100.00;94266.25;4970148;28;20440;-61
2022/09/18 03:26:58;;;;;;;0.40;0.20;;;;;;;17.79;100.00;94264.88;4970699;28;20433;-62
2022/09/18 03:29:26;;;;;;;0.50;0.37;;;;;;;17.55;100.00;94265.72;4969948;28;20431;-62
2022/09/18 03:31:55;;;;;;;0.40;0.20;;;;;;;17.80;100.00;94265.66;4970304;28;20439;-62
2022/09/18 03:34:23;;;;;;;0.80;0.47;;;;;;;17.91;100.00;94277.47;4970003;28;20488;-61
2022/09/18 03:36:53;;;;;;;0.50;0.30;;;;;;;17.25;100.00;94269.75;4970310;28;20431;-62
2022/09/18 03:39:21;;;;;;;0.60;0.50;;;;;;;16.88;100.00;94276.19;4969897;28;20493;-61
2022/09/18 03:41:50;;;;;;;0.40;0.20;;;;;;;17.57;100.00;94276.09;4970670;28;20435;-62
2022/09/18 03:44:18;;;;;;;0.40;0.30;;;;;;;17.65;100.00;94278.66;4970182;28;20932;-61
2022/09/18 03:46:46;;;;;;;0.40;0.20;;;;;;;17.72;100.00;94260.09;4970555;28;20422;-61
2022/09/18 03:49:15;;;;;;;0.50;0.30;;;;;;;17.44;100.00;94269.16;4970310;28;20431;-62
2022/09/18 03:51:43;;;;;;;0.60;0.40;;;;;;;17.12;100.00;94262.84;4970115;28;20434;-61
2022/09/18 03:54:13;;;;;;;0.40;0.30;;;;;;;16.86;100.00;94267.72;4970262;28;20437;-61
2022/09/18 03:56:42;;;;;;;0.60;0.40;;;;;;;16.78;100.00;94284.66;4970099;28;20916;-60
2022/09/18 03:59:10;;;;;;;0.63;0.40;;;;;;;16.60;100.00;94300.13;4969790;28;20476;-60
2022/09/18 04:01:38;;;;;;;0.50;0.30;;;;;;;16.57;100.00;94297.34;4970390;28;20418;-61
2022/09/18 04:04:07;;;;;;;0.40;0.30;;;;;;;17.26;100.00;94292.72;4969988;28;20488;-61
2022/09/18 04:06:35;;;;;;;0.40;0.20;;;;;;;17.23;100.00;94300.66;4970374;28;20437;-61
2022/09/18 04:09:03;;;;;;;0.40;0.30;;;;;;;17.27;100.00;94288.94;4970135;28;20935;-61
2022/09/18 04:11:33;;;;;;;0.60;0.53;;;;;;;17.41;100.00;94301.97;4970039;28;20433;-60
2022/09/18 04:14:02;;;;;;;0.50;0.40;;;;;;;17.53;100.00;94285.94;4970386;28;20450;-61
2022/09/18 04:16:30;;;;;;;0.50;0.40;;;;;;;17.83;100.00;94303.28;4969984;28;20431;-64
2022/09/18 04:18:59;;;;;;;0.40;0.30;;;;;;;18.10;100.00;94299.84;4969656;28;20469;-63
2022/09/18 04:21:27;;;;;;;0.53;0.53;;;;;;;17.17;100.00;94302.78;4970226;28;20450;-61
2022/09/18 04:23:58;;;;;;;0.50;0.40;;;;;;;17.72;100.00;94319.06;4970145;28;20435;-61
2022/09/18 04:26:27;;;;;;;0.80;0.60;;;;;;;16.93;100.00;94297.38;4969949;28;20546;-61
2022/09/18 04:28:57;;;;;;;0.40;0.30;;;;;;;16.64;100.00;94314.41;4969795;28;20437;-62
2022/09/18 04:31:25;;;;;;;0.47;0.33;;;;;;;16.60;100.00;94329.53;4970080;28;20431;-62
2022/09/18 04:33:54;;;;;;;0.60;0.57;;;;;;;17.25;100.00;94295.75;4969486;28;20492;-62
2022/09/18 04:36:26;;;;;;;2.20;0.50;;;;;;;16.89;100.00;94312.56;4969737;28;20438;-59
2022/09/18 04:38:54;;;;;;;0.83;0.77;;;;;;;17.08;100.00;94307.44;4969717;28;20466;-62
2022/09/18 04:41:25;;;;;;;1.07;0.87;;;;;;;16.97;100.00;94322.38;4970982;28;20494;-63
2022/09/18 04:43:53;;;;;;;0.40;0.30;;;;;;;15.91;100.00;94088.09;4972879;28;20436;-62
2022/09/18 04:46:23;;;;;;;0.57;0.33;;;;;;;17.52;100.00;94293.19;4973120;28;20935;-62
2022/09/18 04:48:53;;;;;;;1.17;1.07;;;;;;;17.20;100.00;94312.81;4972855;28;20425;-63
2022/09/18 04:51:22;;;;;;;0.40;0.20;;;;;;;17.47;100.00;94320.16;4972814;28;20446;-63
2022/09/18 04:53:51;;;;;;;0.67;0.67;;;;;;;17.70;100.00;94339.25;4973016;28;20423;-63
2022/09/18 04:56:20;;;;;;;0.97;0.97;;;;;;;17.26;100.00;94337.44;4973197;28;20498;-64
2022/09/18 04:58:49;;;;;;;0.50;0.40;;;;;;;18.03;100.00;94355.97;4972949;28;20454;-64
2022/09/18 05:01:18;;;;;;;0.97;0.50;;;;;;;17.52;100.00;94336.03;4973063;28;20572;-64
2022/09/18 05:03:48;;;;;;;0.40;0.30;;;;;;;17.73;100.00;94352.00;4972870;28;20424;-64
2022/09/18 05:06:17;;;;;;;0.70;0.70;;;;;;;17.98;100.00;94368.81;4973140;28;20440;-63
2022/09/18 05:08:46;;;;;;;0.50;0.40;;;;;;;17.38;100.00;94354.31;4973636;28;20434;-63
2022/09/18 05:11:14;;;;;;;0.87;0.80;;;;;;;17.51;100.00;94360.44;4973023;28;20457;-63
2022/09/18 05:13:43;;;;;;;2.80;0.63;;;;;;;17.67;100.00;94354.13;4973149;28;20427;-64
2022/09/18 05:16:11;;;;;;;0.97;0.90;;;;;;;16.96;100.00;94361.75;4972631;28;20445;-64
2022/09/18 05:18:40;;;;;;;0.80;0.60;;;;;;;17.12;100.00;94369.94;4972585;28;20435;-64
2022/09/18 05:21:11;;;;;;;0.67;0.60;;;;;;;16.69;100.00;94306.19;4972625;28;20473;-64
2022/09/18 05:23:41;;;;;;;0.40;0.30;;;;;;;17.24;100.00;94353.88;4972746;28;20437;-63
2022/09/18 05:26:09;;;;;;;0.40;0.20;;;;;;;17.83;100.00;94370.31;4975088;28;20506;-64
2022/09/18 05:28:38;;;;;;;0.50;0.40;;;;;;;18.00;100.00;94375.41;4975018;28;20442;-65
2022/09/18 05:31:07;;;;;;;0.50;0.33;;;;;;;18.35;100.00;94379.13;4973893;28;20443;-65
2022/09/18 05:33:37;;;;;;;0.40;0.30;;;;;;;17.74;100.00;94364.25;4973241;28;20445;-65
2022/09/18 05:36:06;;;;;;;0.87;0.87;;;;;;;18.05;100.00;94375.16;4972705;28;20842;-63
2022/09/18 05:38:36;;;;;;;0.40;0.40;;;;;;;18.16;100.00;94386.22;4971963;28;20561;-64
2022/09/18 05:41:05;;;;;;;0.60;0.40;;;;;;;18.08;100.00;94395.16;4972507;28;20489;-65
2022/09/18 05:43:34;;;;;;;0.40;0.30;;;;;;;18.34;100.00;94341.91;4973027;28;20482;-65
2022/09/18 05:46:02;;;;;;;0.40;0.30;;;;;;;18.41;100.00;94379.66;4972482;28;20439;-65
2022/09/18 05:48:30;;;;;;;0.83;0.63;;;;;;;18.99;100.00;94384.34;4972393;28;21035;-66
2022/09/18 05:50:59;;;;;;;0.40;0.30;;;;;;;19.84;100.00;94382.97;4974873;28;20904;-68
2022/09/18 05:53:28;;;;;;;0.50;0.30;;;;;;;19.79;100.00;94377.88;4978707;28;21009;-67
2022/09/18 05:55:59;;;;;;;0.50;0.30;;;;;;;20.01;100.00;94358.41;4972132;28;20426;-68
2022/09/18 05:58:27;;;;;;;0.70;0.40;;;;;;;20.47;100.00;94389.78;4972215;28;20455;-69
2022/09/18 06:01:00;;;;;;;0.40;0.30;;;;;;;20.47;100.00;94397.84;4972179;28;20853;-69
2022/09/18 06:03:28;;;;;;;0.50;0.30;;;;;;;20.86;100.00;94395.94;4972275;28;20431;-71
2022/09/18 06:05:57;;;;;;;0.40;0.30;;;;;;;21.22;100.00;94398.19;4974136;28;20898;-70
2022/09/18 06:08:25;;;;;;;1.47;1.43;;;;;;;21.59;100.00;94405.75;4972019;28;20435;-70
2022/09/18 06:10:53;;;;;;;0.50;0.50;;;;;;;21.31;100.00;94414.13;4971491;28;20432;-70
2022/09/18 06:13:23;;;;;;;0.77;0.77;;;;;;;21.89;100.00;94409.34;4971355;28;20424;-71
2022/09/18 06:15:52;;;;;;;0.50;0.40;;;;;;;21.96;100.00;94401.38;4971379;28;20424;-72
2022/09/18 06:18:21;;;;;;;0.60;0.60;;;;;;;22.33;100.00;94423.88;4971293;28;20495;-69
2022/09/18 06:20:53;;;;;;;0.50;0.30;;;;;;;22.27;100.00;94411.84;4971460;28;20975;-70
2022/09/18 06:23:23;;;;;;;0.73;0.70;;;;;;;21.81;97.64;94397.63;4971752;28;20925;-70
2022/09/18 06:25:58;;;;;;;0.40;0.30;;;;;;;21.46;97.60;94446.38;4971773;28;20425;-67
2022/09/18 06:28:29;;;;;;;0.50;0.50;;;;;;;21.25;96.90;94459.44;4971462;28;20931;-68
2022/09/18 06:30:58;;;;;;;0.50;0.40;;;;;;;21.50;97.49;94459.91;4971723;28;20446;-68
2022/09/18 06:33:28;;;;;;;0.60;0.47;;;;;;;22.01;91.06;94463.88;4970657;28;20434;-68
2022/09/18 06:35:56;;;;;;;0.60;0.60;;;;;;;22.18;89.97;94472.63;4970146;28;20467;-67
2022/09/18 06:38:24;;;;;;;0.50;0.40;;;;;;;20.80;89.79;94478.16;4969378;28;20480;-66
2022/09/18 06:40:54;;;;;;;0.50;0.47;;;;;;;21.49;88.90;94488.78;4968450;28;21094;-67
2022/09/18 06:43:23;;;;;;;0.40;0.20;;;;;;;21.99;86.38;94492.38;4969364;28;20435;-69
2022/09/18 06:45:54;;;;;;;0.40;0.20;;;;;;;22.05;83.23;94505.22;4968963;28;20432;-68
2022/09/18 06:48:22;;;;;;;0.50;0.40;;;;;;;22.02;82.92;94503.22;4970442;28;20429;-70
2022/09/18 06:50:52;;;;;;;1.63;0.33;;;;;;;21.95;80.22;94510.41;4970565;28;20430;-71
2022/09/18 06:53:21;;;;;;;0.50;0.40;;;;;;;21.83;76.23;94508.63;4970708;28;20435;-72
2022/09/18 06:55:50;;;;;;;0.50;0.30;;;;;;;22.12;75.68;94518.03;4970996;28;20886;-72
2022/09/18 06:58:19;;;;;;;0.50;0.40;;;;;;;20.98;75.05;94519.69;4971107;28;20805;-70
2022/09/18 07:00:48;;;;;;;0.40;0.30;;;;;;;22.03;75.39;94531.78;4970872;28;20475;-70
2022/09/18 07:03:18;;;;;;;0.40;0.30;;;;;;;21.75;71.84;94525.84;4970442;28;20850;-69
2022/09/18 07:05:46;;;;;;;2.73;1.03;;;;;;;21.93;71.35;94526.19;4970687;28;20446;-69
2022/09/18 07:08:14;;;;;;;0.40;0.23;;;;;;;22.76;70.74;94530.63;4970839;28;20441;-69
2022/09/18 07:10:43;;;;;;;0.40;0.30;;;;;;;21.89;68.26;94533.44;4970722;28;20787;-68
2022/09/18 07:13:11;;;;;;;0.63;0.63;;;;;;;22.56;69.85;94543.41;4971035;28;20444;-68
2022/09/18 07:15:40;;;;;;;0.50;0.30;;;;;;;22.25;67.92;94548.31;4970704;28;20440;-67
2022/09/18 07:18:08;;;;;;;1.10;1.03;;;;;;;22.19;66.28;94563.25;4970626;28;20447;-67
2022/09/18 07:20:38;;;;;;;0.40;0.30;;;;;;;21.89;65.17;94560.41;4970874;28;20455;-67
2022/09/18 07:23:06;;;;;;;0.40;0.20;;;;;;;22.21;63.94;94523.97;4970776;28;20429;-67
2022/09/18 07:25:34;;;;;;;0.50;0.30;;;;;;;22.17;63.58;94560.91;4970277;28;20443;-67
2022/09/18 07:28:06;;;;;;;0.53;0.30;;;;;;;21.76;65.39;94561.69;4970097;28;20971;-66
2022/09/18 07:30:35;;;;;;;0.40;0.30;;;;;;;21.76;63.77;94562.47;4970210;28;20429;-66
2022/09/18 07:33:05;;;;;;;0.40;0.30;;;;;;;22.47;63.77;94577.97;4970265;28;20449;-66
2022/09/18 07:35:33;;;;;;;0.40;0.20;;;;;;;21.97;61.69;94570.19;4969501;28;20964;-64
2022/09/18 07:38:06;;;;;;;0.50;0.30;;;;;;;22.65;61.02;94578.28;4969487;28;20846;-65
2022/09/18 07:40:35;;;;;;;0.50;0.30;;;;;;;23.18;64.12;94582.53;4969525;28;20437;-65
2022/09/18 07:43:05;;;;;;;0.40;0.30;;;;;;;23.03;63.54;94582.69;4970152;28;20428;-64
2022/09/18 07:45:34;;;;;;;4.30;0.70;;;;;;;22.34;60.26;94576.59;4969727;28;20432;-64
2022/09/18 07:48:04;;;;;;;0.40;0.30;;;;;;;22.95;59.15;94584.53;4970273;28;20441;-63
2022/09/18 07:50:32;;;;;;;0.40;0.23;;;;;;;23.18;58.47;94582.53;4970222;28;20432;-64
2022/09/18 07:53:04;;;;;;;0.40;0.30;;;;;;;24.20;56.01;94593.03;4970266;28;20417;-64
2022/09/18 07:55:35;;;;;;;0.40;0.30;;;;;;;23.50;55.44;94568.66;4969827;28;20449;-65
2022/09/18 07:58:06;;;;;;;0.40;0.20;;;;;;;23.36;55.88;94594.38;4969742;28;20448;-65
2022/09/18 08:00:36;;;;;;;0.40;0.30;;;;;;;23.95;54.76;94588.13;4969681;28;20425;-65
2022/09/18 08:03:06;;;;;;;0.40;0.30;;;;;;;22.81;55.95;94602.47;4970169;28;20474;-66
2022/09/18 08:05:35;;;;;;;0.40;0.30;;;;;;;22.74;55.17;94595.78;4969898;28;20512;-66
2022/09/18 08:08:06;;;;;;;0.40;0.20;;;;;;;24.45;60.72;94594.03;4969665;28;20424;-66
2022/09/18 08:10:35;;;;;;;0.50;0.30;;;;;;;24.15;52.29;94596.06;4969900;28;20444;-66
2022/09/18 08:13:03;;;;;;;0.40;0.40;;;;;;;25.42;54.44;94583.47;4969808;28;20453;-66
2022/09/18 08:15:33;;;;;;;0.70;0.70;;;;;;;24.94;52.10;94594.44;4970063;28;20789;-66
2022/09/18 08:18:01;;;;;;;0.50;0.40;;;;;;;24.22;51.81;94609.66;4974059;28;20445;-66
2022/09/18 08:20:30;;;;;;;0.50;0.30;;;;;;;23.41;52.16;94606.81;4973138;28;20929;-66
2022/09/18 08:22:58;;;;;;;2.30;0.50;;;;;;;23.11;51.28;94612.19;4972925;28;20487;-65
2022/09/18 08:25:28;;;;;;;0.50;0.30;;;;;;;23.16;52.74;94616.47;4973064;28;20423;-65
2022/09/18 08:28:00;;;;;;;0.30;0.20;;;;;;;24.09;54.70;94613.78;4973070;28;20435;-65
2022/09/18 08:30:29;;;;;;;0.40;0.30;;;;;;;25.43;51.23;94541.59;4973083;28;20427;-65
2022/09/18 08:32:59;;;;;;;0.40;0.30;;;;;;;26.19;53.77;94591.13;4973321;28;20449;-65
2022/09/18 08:35:27;;;;;;;0.50;0.30;;;;;;;25.88;48.13;94587.94;4972938;28;20445;-65
2022/09/18 08:37:56;;;;;;;0.40;0.20;;;;;;;25.12;49.10;94589.13;4973211;28;20429;-65
2022/09/18 08:40:41;;;;;;;0.30;0.20;;;;;;;25.85;48.90;94590.66;4973083;28;20472;-66
2022/09/18 08:43:20;;;;;;;0.40;0.30;;;;;;;25.68;47.26;94588.63;4973002;28;20506;-65
2022/09/18 08:45:57;;;;;;;0.50;0.40;;;;;;;24.89;48.45;94596.72;4972829;28;20428;-66
2022/09/18 08:48:31;;;;;;;3.50;0.30;;;;;;;25.50;49.55;94599.41;4972856;28;20444;-66
2022/09/18 08:51:03;;;;;;;0.40;0.23;;;;;;;25.69;47.83;94598.34;4972702;28;20433;-66
2022/09/18 08:53:39;;;;;;;0.40;0.30;;;;;;;26.46;49.38;94595.06;4972676;28;20446;-65
2022/09/18 08:56:15;;;;;;;0.40;0.40;;;;;;;26.75;45.73;94577.56;4972674;28;20433;-66
2022/09/18 08:58:49;;;;;;;0.40;0.30;;;;;;;26.92;47.75;94595.06;4972500;28;20449;-66
2022/09/18 09:01:19;;;;;;;0.30;0.20;;;;;;;27.49;43.80;94612.09;4973027;28;20810;-66
2022/09/18 09:03:59;;;;;;;0.40;0.30;;;;;;;27.87;45.47;94600.28;4972548;28;20422;-66
2022/09/18 09:06:45;;;;;;;0.30;0.30;;;;;;;27.88;44.01;94585.47;4972463;28;20436;-65
2022/09/18 09:09:31;;;;;;;0.40;0.33;;;;;;;27.93;43.61;94595.19;4972756;28;20447;-66
2022/09/18 09:12:09;;;;;;;0.30;0.30;;;;;;;27.62;49.46;94573.16;4972646;28;20429;-66
2022/09/18 09:14:51;;;;;;;0.40;0.30;;;;;;;28.38;41.75;94590.69;4972272;28;20457;-65
2022/09/18 09:17:38;;;;;;;0.30;0.20;;;;;;;28.66;43.44;94595.97;4972850;28;20433;-65
2022/09/18 09:20:20;;;;;;;0.30;0.20;;;;;;;27.20;43.95;94591.53;4972092;28;20430;-65
2022/09/18 09:22:56;;;;;;;0.40;0.30;;;;;;;27.84;42.97;94592.13;4972337;28;20495;-66
2022/09/18 09:25:33;;;;;;;0.50;0.40;;;;;;;27.69;43.08;94594.13;4972614;28;20785;-66
2022/09/18 09:28:14;;;;;;;0.90;0.40;;;;;;;28.62;43.02;94579.63;4971988;28;20471;-66
2022/09/18 09:30:47;;;;;;;0.40;0.30;;;;;;;28.83;43.32;94592.31;4972127;28;20434;-66
2022/09/18 09:33:22;;;;;;;0.50;0.30;;;;;;;29.02;42.51;94566.41;4972213;28;20911;-66
2022/09/18 09:35:54;;;;;;;0.53;0.50;;;;;;;29.67;40.62;94604.34;4971463;28;20431;-65
2022/09/18 09:38:39;;;;;;;0.30;0.30;;;;;;;29.71;37.93;94599.63;4971398;28;20536;-65
2022/09/18 09:41:18;;;;;;;0.60;0.50;;;;;;;30.85;37.98;94602.34;4972078;28;20460;-65
2022/09/18 09:43:56;;;;;;;0.50;0.50;;;;;;;30.31;39.38;94604.31;4972248;28;20477;-65
2022/09/18 09:46:40;;;;;;;0.40;0.37;;;;;;;30.39;40.15;94607.75;4971958;28;20443;-65
2022/09/18 09:49:15;;;;;;;0.40;0.30;;;;;;;29.06;41.00;94611.59;4971901;28;20421;-65
2022/09/18 09:51:52;;;;;;;0.40;0.30;;;;;;;28.83;39.63;94616.84;4971948;28;20432;-66
2022/09/18 09:54:21;;;;;;;1.97;0.33;;;;;;;29.08;40.27;94611.19;4971598;28;20808;-65
2022/09/18 09:56:56;;;;;;;0.40;0.40;;;;;;;29.33;39.29;94611.75;4971571;28;20433;-66
2022/09/18 09:59:33;;;;;;;0.40;0.40;;;;;;;28.45;41.13;94618.66;4971972;28;20442;-67
2022/09/18 10:02:22;;;;;;;0.37;0.30;;;;;;;27.75;44.79;94619.78;4971684;28;20433;-67
2022/09/18 10:04:56;;;;;;;1.70;0.63;;;;;;;26.57;44.63;94630.38;4971501;28;20427;-67
2022/09/18 10:07:31;;;;;;;0.40;0.40;;;;;;;26.84;45.67;94594.28;4971988;28;20945;-66
2022/09/18 10:10:03;;;;;;;0.50;0.40;;;;;;;25.84;45.33;94591.78;4971716;28;20821;-65
2022/09/18 10:12:41;;;;;;;0.93;0.93;;;;;;;27.03;44.54;94639.34;4971910;28;20427;-65
2022/09/18 10:15:19;;;;;;;0.40;0.30;;;;;;;27.56;43.08;94642.78;4971470;28;20433;-65
2022/09/18 10:17:50;;;;;;;0.40;0.30;;;;;;;27.48;43.26;94648.63;4971417;28;20437;-65
2022/09/18 10:20:25;;;;;;;0.60;0.40;;;;;;;27.78;44.39;94656.34;4971446;28;20497;-66
2022/09/18 10:22:56;;;;;;;0.50;0.30;;;;;;;27.75;42.40;94659.84;4971327;28;20492;-66
2022/09/18 10:25:31;;;;;;;0.40;0.40;;;;;;;28.56;41.86;94663.00;4971099;28;20450;-65
2022/09/18 10:27:59;;;;;;;4.30;0.87;;;;;;;28.86;40.54;94670.63;4971494;28;20432;-65
2022/09/18 10:30:29;;;;;;;0.40;0.30;;;;;;;29.69;39.56;94667.53;4971511;28;20494;-65
2022/09/18 10:32:58;;;;;;;1.03;1.03;;;;;;;30.32;40.62;94668.75;4971300;28;20435;-65
2022/09/18 10:35:44;;;;;;;0.40;0.30;;;;;;;30.09;38.48;94672.19;4971278;28;20797;-65
2022/09/18 10:38:29;;;;;;;0.40;0.30;;;;;;;27.51;43.40;94673.13;4970149;28;20442;-66
2022/09/18 10:41:12;;;;;;;0.50;0.40;;;;;;;28.10;41.51;94681.53;4970860;28;20534;-65
2022/09/18 10:43:56;;;;;;;0.40;0.30;;;;;;;29.29;39.30;94690.94;4970928;28;20470;-64
2022/09/18 10:46:29;;;;;;;0.30;0.20;;;;;;;27.91;40.36;94695.59;4970876;28;20954;-68
2022/09/18 10:49:01;;;;;;;0.40;0.30;;;;;;;27.23;40.80;94703.09;4971088;28;20510;-67
2022/09/18 10:51:29;;;;;;;0.30;0.30;;;;;;;26.04;43.94;94690.00;4971237;28;20435;-68
2022/09/18 10:54:14;;;;;;;0.40;0.30;;;;;;;24.49;45.44;94712.09;4970963;28;20428;-70
2022/09/18 10:56:42;;;;;;;0.40;0.30;;;;;;;24.11;45.74;94717.09;4970969;28;20434;-69
2022/09/18 10:59:31;;;;;;;0.60;0.40;;;;;;;23.96;46.64;94719.59;4971095;28;20457;-69
2022/09/18 11:02:03;;;;;;;0.40;0.30;;;;;;;23.76;48.09;94718.19;4971168;28;20789;-70
2022/09/18 11:04:33;;;;;;;2.83;0.87;;;;;;;23.12;47.90;94723.78;4970543;28;20500;-69
2022/09/18 11:07:06;;;;;;;0.40;0.30;;;;;;;23.07;48.12;94724.09;4970821;28;20438;-67
2022/09/18 11:09:38;;;;;;;0.40;0.30;;;;;;;23.66;46.12;94675.53;4970704;28;20529;-68
2022/09/18 11:12:15;;;;;;;0.43;0.30;;;;;;;24.41;44.22;94723.25;4971064;28;20477;-69
2022/09/18 11:14:46;;;;;;;0.40;0.20;;;;;;;24.57;45.22;94723.78;4970626;28;20442;-66
2022/09/18 11:17:24;;;;;;;0.40;0.40;;;;;;;24.38;46.64;94718.56;4970853;28;20428;-65
2022/09/18 11:19:56;;;;;;;1.13;0.40;;;;;;;24.80;42.51;94719.00;4970487;28;20426;-65
2022/09/18 11:22:38;;;;;;;0.50;0.40;;;;;;;25.46;41.51;94718.00;4970939;28;20437;-66
2022/09/18 11:25:16;;;;;;;0.40;0.30;;;;;;;24.85;41.85;94715.97;4970888;28;20434;-67
2022/09/18 11:27:47;;;;;;;0.40;0.40;;;;;;;25.43;41.17;94710.59;4970697;28;20959;-67
2022/09/18 11:30:20;;;;;;;0.40;0.33;;;;;;;26.25;41.23;94699.03;4970502;28;20429;-68
2022/09/18 11:32:53;;;;;;;0.40;0.30;;;;;;;26.24;39.90;94716.50;4970699;28;20430;-68
2022/09/18 11:35:22;;;;;;;0.40;0.30;;;;;;;27.88;41.87;94724.38;4970255;28;20449;-67
2022/09/18 11:37:53;;;;;;;0.40;0.30;;;;;;;28.14;38.49;94717.72;4970305;28;20424;-67
2022/09/18 11:40:24;;;;;;;0.40;0.30;;;;;;;29.47;34.68;94720.81;4970014;28;20487;-67
2022/09/18 11:42:54;;;;;;;0.40;0.33;;;;;;;28.55;36.97;94726.88;4970236;28;20440;-67
2022/09/18 11:45:47;;;;;;;0.70;0.70;;;;;;;29.36;36.98;94720.91;4970426;28;20903;-64
2022/09/18 11:48:26;;;;;;;0.40;0.30;;;;;;;28.77;35.58;94720.16;4970492;28;20423;-65
2022/09/18 11:50:57;;;;;;;0.30;0.30;;;;;;;26.84;37.38;94729.50;4973018;28;20434;-66
2022/09/18 11:53:29;;;;;;;0.37;0.30;;;;;;;28.11;37.23;94691.25;4973718;28;20449;-65